Angler Guide Weather for Daniels Harbour -
Daniels Harbour, Newfoundland Current Weather Conditions
Enter your "Place, State", US Zip Code or ICAO:  
Forecast Information Radar Information
Daniels Harbour, Newfoundland, Canada  Lat: 50.23N, Lon: 57.57W
ICAO Used: CYBX
Current Conditions
Updated:
Sun & Moon Information:
Temp: N/A
Humidity: N/A
Wind Speed: N/A
Barometer: N/A
Dewpoint: N/A
Heat Index: N/A
Wind Chill: N/A
Civil Twilight: 7:35 AM NST
Moonrise: 7:15 AM NST Moon Phase:
New Moon
New Moon
Moonset: 4:18 PM NST
Sunrise: 8:13 AM NST
Sunset: 4:17 PM NST
Civil Twilight: 4:55 PM NST
Forecast for Daniels Harbour, NF:
(Forecast based on TAF for )
0342 PM NST MON NOV 06 2006
  
AFTERNOONEVENINGOVERNIGHT
PARTLY CLOUDYPARTLY CLOUDYPARTLY CLOUDY
Partly
Cloudy
Partly
Cloudy
Partly
Cloudy
TAF based forecast:
Dated: 0342 PM NST MON NOV 06 2006
Afternoon...Partly cloudy with winds from the south west at 6 mph.
Evening...Partly cloudy with winds from the south west at 6 mph.
Overnight...Partly cloudy with winds from the south west at 6 mph. Then becoming partly cloudy with winds from the south south west at 12 mph.
Original Encoded TAF:
Dated: 0342 PM NST MON NOV 06 2006
2006/11/06 19:42
CYBX 061942Z 062008 22005KT P6SM FEW030 SCT090 BECMG 0708 24010KT=




Powered by Angler Guide.com
Copyright 2007, all rights reserved.